createdAt,value
2022-07-25T00:00:02.059Z,23.00
2022-07-25T00:01:02.240Z,23.00
2022-07-25T00:02:02.455Z,22.99
2022-07-25T00:03:02.691Z,22.98
2022-07-25T00:04:03.077Z,22.94
2022-07-25T00:05:03.072Z,22.94
2022-07-25T00:06:03.104Z,22.94
2022-07-25T00:07:03.262Z,22.94
2022-07-25T00:08:03.450Z,22.94
2022-07-25T00:09:03.610Z,22.93
2022-07-25T00:10:03.770Z,22.93
2022-07-25T00:11:03.941Z,22.93
2022-07-25T00:12:04.109Z,22.90
2022-07-25T00:13:04.302Z,22.88
2022-07-25T00:14:04.857Z,22.88
2022-07-25T00:15:04.618Z,22.87
2022-07-25T00:16:04.917Z,22.88
2022-07-25T00:17:04.971Z,22.91
2022-07-25T00:18:05.163Z,22.90
2022-07-25T00:19:05.417Z,22.90
2022-07-25T00:20:05.512Z,22.91
2022-07-25T00:21:05.671Z,22.90
2022-07-25T00:22:05.832Z,22.88
2022-07-25T00:23:06.002Z,22.88
2022-07-25T00:24:06.469Z,22.83
2022-07-25T00:25:06.353Z,22.83
2022-07-25T00:26:06.511Z,22.83
2022-07-25T00:27:06.672Z,22.78
2022-07-25T00:28:06.831Z,22.80
2022-07-25T00:29:06.981Z,22.80
2022-07-25T00:30:07.202Z,22.78
2022-07-25T00:31:07.410Z,22.75
2022-07-25T00:32:07.542Z,22.76
2022-07-25T00:33:07.709Z,22.75
2022-07-25T00:34:08.255Z,22.76
2022-07-25T00:35:08.061Z,22.76
2022-07-25T00:36:08.222Z,22.75
2022-07-25T00:37:08.372Z,22.73
2022-07-25T00:38:08.565Z,22.75
2022-07-25T00:39:08.726Z,22.72
2022-07-25T00:40:08.938Z,22.70
2022-07-25T00:41:09.113Z,22.69
2022-07-25T00:42:09.253Z,22.69
2022-07-25T00:43:09.409Z,22.69
2022-07-25T00:44:09.796Z,22.68
2022-07-25T00:45:09.764Z,22.66
2022-07-25T00:46:10.002Z,22.65
2022-07-25T00:47:10.119Z,22.63
2022-07-25T00:48:10.282Z,22.62
2022-07-25T00:49:10.481Z,22.60
2022-07-25T00:50:10.629Z,22.60
2022-07-25T00:51:10.773Z,22.60
2022-07-25T00:52:10.963Z,22.59
2022-07-25T00:53:11.125Z,22.59
2022-07-25T00:54:11.294Z,22.59
2022-07-25T00:55:11.467Z,22.60
2022-07-25T00:56:11.624Z,22.59
2022-07-25T00:57:11.785Z,22.59
2022-07-25T00:58:11.952Z,22.54
2022-07-25T00:59:12.104Z,22.55
2022-07-25T01:00:12.303Z,22.54
2022-07-25T01:01:12.457Z,22.54
2022-07-25T01:02:12.616Z,22.53
2022-07-25T01:03:12.875Z,22.51
2022-07-25T01:04:12.968Z,22.50
2022-07-25T01:05:13.148Z,22.48
2022-07-25T01:06:13.304Z,22.47
2022-07-25T01:07:13.476Z,22.47
2022-07-25T01:08:13.635Z,22.45
2022-07-25T01:09:13.796Z,22.47
2022-07-25T01:10:13.987Z,22.44
2022-07-25T01:11:14.144Z,22.44
2022-07-25T01:12:14.325Z,22.44
2022-07-25T01:13:14.477Z,22.44
2022-07-25T01:14:14.676Z,22.41
2022-07-25T01:15:14.854Z,22.43
2022-07-25T01:16:15.051Z,22.41
2022-07-25T01:17:15.176Z,22.43
2022-07-25T01:18:15.375Z,22.41
2022-07-25T01:19:15.527Z,22.41
2022-07-25T01:20:15.687Z,22.41
2022-07-25T01:21:15.846Z,22.41
2022-07-25T01:22:16.006Z,22.39
2022-07-25T01:23:16.166Z,22.41
2022-07-25T01:24:16.325Z,22.41
2022-07-25T01:25:16.496Z,22.39
2022-07-25T01:26:16.666Z,22.39
2022-07-25T01:27:17.204Z,22.39
2022-07-25T01:28:16.997Z,22.38
2022-07-25T01:29:17.155Z,22.38
2022-07-25T01:30:17.365Z,22.36
2022-07-25T01:31:17.619Z,22.38
2022-07-25T01:32:17.714Z,22.35
2022-07-25T01:33:17.866Z,22.35
2022-07-25T01:34:18.028Z,22.32
2022-07-25T01:35:18.208Z,22.33
2022-07-25T01:36:18.357Z,22.32
2022-07-25T01:37:18.538Z,22.33
2022-07-25T01:38:18.728Z,22.33
2022-07-25T01:39:18.887Z,22.32
2022-07-25T01:40:19.094Z,22.29
2022-07-25T01:41:22.295Z,22.30
2022-07-25T01:42:19.397Z,22.29
2022-07-25T01:43:19.589Z,22.29
2022-07-25T01:44:19.761Z,22.30
2022-07-25T01:45:19.926Z,22.28
2022-07-25T01:46:20.199Z,22.28
2022-07-25T01:47:20.250Z,22.26
2022-07-25T01:48:20.408Z,22.28
2022-07-25T01:49:20.578Z,22.26
2022-07-25T01:50:20.759Z,22.28
2022-07-25T01:51:20.919Z,22.26
2022-07-25T01:52:21.118Z,22.28
2022-07-25T01:53:21.287Z,22.26
2022-07-25T01:54:21.449Z,22.26
2022-07-25T01:55:21.629Z,22.28
2022-07-25T01:56:21.880Z,22.26
2022-07-25T01:57:21.999Z,22.25
2022-07-25T01:58:22.137Z,22.23
2022-07-25T01:59:22.299Z,22.23
2022-07-25T02:00:22.480Z,22.22
2022-07-25T02:01:22.677Z,22.22
2022-07-25T02:02:22.799Z,22.22
2022-07-25T02:03:23.000Z,22.20
2022-07-25T02:04:23.195Z,22.22
2022-07-25T02:05:23.341Z,22.20
2022-07-25T02:06:23.497Z,22.20
2022-07-25T02:07:23.690Z,22.18
2022-07-25T02:08:23.850Z,22.18
2022-07-25T02:09:24.010Z,22.17
2022-07-25T02:10:24.179Z,22.14
2022-07-25T02:11:24.362Z,22.15
2022-07-25T02:12:24.519Z,22.13
2022-07-25T02:13:24.686Z,22.13
2022-07-25T02:14:24.841Z,22.11
2022-07-25T02:15:25.017Z,22.08
2022-07-25T02:16:29.079Z,22.06
2022-07-25T02:17:25.431Z,22.06
2022-07-25T02:18:25.531Z,22.07
2022-07-25T02:19:25.699Z,22.04
2022-07-25T02:20:25.871Z,22.04
2022-07-25T02:21:26.050Z,22.04
2022-07-25T02:22:26.180Z,22.02
2022-07-25T02:23:26.382Z,22.00
2022-07-25T02:24:26.540Z,22.02
2022-07-25T02:25:26.710Z,22.00
2022-07-25T02:26:26.886Z,21.98
2022-07-25T02:27:27.030Z,21.98
2022-07-25T02:28:27.191Z,21.98
2022-07-25T02:29:27.350Z,21.98
2022-07-25T02:30:27.597Z,21.99
2022-07-25T02:31:27.759Z,21.96
2022-07-25T02:32:27.876Z,21.95
2022-07-25T02:33:28.061Z,21.95
2022-07-25T02:34:28.181Z,21.92
2022-07-25T02:35:28.362Z,21.91
2022-07-25T02:36:28.521Z,21.89
2022-07-25T02:37:28.723Z,21.85
2022-07-25T02:38:28.884Z,21.83
2022-07-25T02:39:29.054Z,21.80
2022-07-25T02:40:29.223Z,21.79
2022-07-25T02:41:29.382Z,21.79
2022-07-25T02:42:29.541Z,21.79
2022-07-25T02:43:29.702Z,21.77
2022-07-25T02:44:29.864Z,21.79
2022-07-25T02:45:30.033Z,21.76
2022-07-25T02:46:30.291Z,21.76
2022-07-25T02:47:30.353Z,21.76
2022-07-25T02:48:30.569Z,21.73
2022-07-25T02:49:30.692Z,21.69
2022-07-25T02:50:30.875Z,21.69
2022-07-25T02:51:31.052Z,21.67
2022-07-25T02:52:31.231Z,21.66
2022-07-25T02:53:55.457Z,21.64
2022-07-25T02:54:32.572Z,21.64
2022-07-25T02:55:31.752Z,21.66
2022-07-25T02:56:32.156Z,21.66
2022-07-25T02:57:32.072Z,21.66
2022-07-25T02:58:32.254Z,21.64
2022-07-25T02:59:32.517Z,21.62
2022-07-25T03:00:32.603Z,21.61
2022-07-25T03:01:32.799Z,21.62
2022-07-25T03:02:32.933Z,21.64
2022-07-25T03:03:33.143Z,21.64
2022-07-25T03:04:33.317Z,21.64
2022-07-25T03:05:33.470Z,21.61
2022-07-25T03:06:33.634Z,21.60
2022-07-25T03:07:33.814Z,21.58
2022-07-25T03:08:34.004Z,21.60
2022-07-25T03:09:34.193Z,21.61
2022-07-25T03:10:34.355Z,21.60
2022-07-25T03:11:34.525Z,21.60
2022-07-25T03:12:34.683Z,21.58
2022-07-25T03:13:34.844Z,21.57
2022-07-25T03:14:34.994Z,21.55
2022-07-25T03:15:35.193Z,21.55
2022-07-25T03:16:35.410Z,21.54
2022-07-25T03:17:35.506Z,21.52
2022-07-25T03:18:35.654Z,21.54
2022-07-25T03:19:35.835Z,21.52
2022-07-25T03:20:36.036Z,21.52
2022-07-25T03:21:36.214Z,21.52
2022-07-25T03:22:36.364Z,21.52
2022-07-25T03:23:36.554Z,21.52
2022-07-25T03:24:36.715Z,21.50
2022-07-25T03:25:36.916Z,21.52
2022-07-25T03:26:37.053Z,21.50
2022-07-25T03:27:37.243Z,21.50
2022-07-25T03:28:37.395Z,21.51
2022-07-25T03:29:37.585Z,21.52
2022-07-25T03:30:37.755Z,21.52
2022-07-25T03:31:37.984Z,21.54
2022-07-25T03:32:38.105Z,21.57
2022-07-25T03:33:38.285Z,21.58
2022-07-25T03:34:38.465Z,21.58
2022-07-25T03:35:38.678Z,21.61
2022-07-25T03:36:38.816Z,21.64
2022-07-25T03:37:38.998Z,21.64
2022-07-25T03:38:39.147Z,21.66
2022-07-25T03:39:39.338Z,21.67
2022-07-25T03:40:39.576Z,21.70
2022-07-25T03:41:39.706Z,21.67
2022-07-25T03:42:39.897Z,21.69
2022-07-25T03:43:40.074Z,21.67
2022-07-25T03:44:40.267Z,21.70
2022-07-25T03:45:40.527Z,21.69
2022-07-25T03:46:40.605Z,21.69
2022-07-25T03:47:40.794Z,21.69
2022-07-25T03:48:41.066Z,21.69
2022-07-25T03:49:41.170Z,21.69
2022-07-25T03:50:41.297Z,21.72
2022-07-25T03:51:41.473Z,21.73
2022-07-25T03:52:41.657Z,21.73
2022-07-25T03:53:41.818Z,21.73
2022-07-25T03:54:41.987Z,21.76
2022-07-25T03:55:42.149Z,21.75
2022-07-25T03:56:43.861Z,21.79
2022-07-25T03:57:42.487Z,21.80
2022-07-25T03:58:42.646Z,21.82
2022-07-25T03:59:42.826Z,21.85
2022-07-25T04:00:43.025Z,21.85
2022-07-25T04:01:43.157Z,21.91
2022-07-25T04:02:43.375Z,21.95
2022-07-25T04:03:43.517Z,22.04
2022-07-25T04:04:43.713Z,22.11
2022-07-25T04:05:47.409Z,22.20
2022-07-25T04:06:44.035Z,22.32
2022-07-25T04:07:44.207Z,22.45
2022-07-25T04:08:44.389Z,22.55
2022-07-25T04:09:44.590Z,22.62
2022-07-25T04:10:44.758Z,22.69
2022-07-25T04:11:44.937Z,22.73
2022-07-25T04:12:45.117Z,22.76
2022-07-25T04:13:45.312Z,22.80
2022-07-25T04:14:45.473Z,22.81
2022-07-25T04:15:45.619Z,22.76
2022-07-25T04:16:45.826Z,22.75
2022-07-25T04:17:45.979Z,22.75
2022-07-25T04:18:46.152Z,22.73
2022-07-25T04:19:46.338Z,22.75
2022-07-25T04:20:46.479Z,22.78
2022-07-25T04:21:46.659Z,22.81
2022-07-25T04:22:47.269Z,22.81
2022-07-25T04:23:47.039Z,22.84
2022-07-25T04:24:47.179Z,22.87
2022-07-25T04:25:47.368Z,22.88
2022-07-25T04:26:47.539Z,22.91
2022-07-25T04:27:47.719Z,22.91
2022-07-25T04:28:48.099Z,22.93
2022-07-25T04:29:48.081Z,22.93
2022-07-25T04:30:48.263Z,22.96
2022-07-25T04:31:48.509Z,22.94
2022-07-25T04:32:48.598Z,22.91
2022-07-25T04:33:49.833Z,22.91
2022-07-25T04:34:48.950Z,22.93
2022-07-25T04:35:49.102Z,22.94
2022-07-25T04:36:49.281Z,22.94
2022-07-25T04:37:49.478Z,22.96
2022-07-25T04:38:49.672Z,22.98
2022-07-25T04:39:49.822Z,22.99
2022-07-25T04:40:50.002Z,22.99
2022-07-25T04:41:50.185Z,23.00
2022-07-25T04:42:50.361Z,22.99
2022-07-25T04:43:50.571Z,22.98
2022-07-25T04:44:50.715Z,22.96
2022-07-25T04:45:50.943Z,22.96
2022-07-25T04:46:51.053Z,22.96
2022-07-25T04:47:51.232Z,23.00
2022-07-25T04:48:53.076Z,23.03
2022-07-25T04:49:51.580Z,23.09
2022-07-25T04:50:51.732Z,23.13
2022-07-25T04:51:51.911Z,23.21
2022-07-25T04:52:52.091Z,23.21
2022-07-25T04:53:52.292Z,23.25
2022-07-25T04:54:52.425Z,23.27
2022-07-25T04:55:52.611Z,23.28
2022-07-25T04:56:52.782Z,23.34
2022-07-25T04:57:52.962Z,23.34
2022-07-25T04:58:53.152Z,23.34
2022-07-25T04:59:53.301Z,23.32
2022-07-25T05:00:53.527Z,23.31
2022-07-25T05:01:53.691Z,23.25
2022-07-25T05:02:53.822Z,23.24
2022-07-25T05:03:54.020Z,23.27
2022-07-25T05:04:54.162Z,23.27
2022-07-25T05:05:54.343Z,23.27
2022-07-25T05:06:54.525Z,23.31
2022-07-25T05:07:54.725Z,23.32
2022-07-25T05:08:54.893Z,23.34
2022-07-25T05:09:55.084Z,23.36
2022-07-25T05:10:55.253Z,23.39
2022-07-25T05:11:56.612Z,23.43
2022-07-25T05:12:55.596Z,23.47
2022-07-25T05:13:55.794Z,23.63
2022-07-25T05:14:55.943Z,23.88
2022-07-25T05:15:56.167Z,24.21
2022-07-25T05:16:56.449Z,24.55
2022-07-25T05:17:56.433Z,24.81
2022-07-25T05:18:56.623Z,24.98
2022-07-25T05:19:56.793Z,25.03
2022-07-25T05:20:56.963Z,25.03
2022-07-25T05:21:57.144Z,25.07
2022-07-25T05:22:57.324Z,25.14
2022-07-25T05:23:57.527Z,25.22
2022-07-25T05:24:57.664Z,25.21
2022-07-25T05:25:57.855Z,25.17
2022-07-25T05:26:58.034Z,25.18
2022-07-25T05:27:58.215Z,25.28
2022-07-25T05:28:58.385Z,25.43
2022-07-25T05:29:58.545Z,25.69
2022-07-25T05:30:58.717Z,26.09
2022-07-25T05:31:58.987Z,26.56
2022-07-25T05:32:59.083Z,27.00
2022-07-25T05:33:59.292Z,27.44
2022-07-25T05:34:59.455Z,27.90
2022-07-25T05:35:59.634Z,28.29
2022-07-25T05:36:59.805Z,28.63
2022-07-25T05:37:59.997Z,29.01
2022-07-25T05:39:00.179Z,29.38
2022-07-25T05:40:00.356Z,29.72
2022-07-25T05:41:00.527Z,30.08
2022-07-25T05:42:00.717Z,30.31
2022-07-25T05:43:03.221Z,30.57
2022-07-25T05:44:01.077Z,30.78
2022-07-25T05:45:01.222Z,31.02
2022-07-25T05:46:01.396Z,31.15
2022-07-25T05:47:01.630Z,31.29
2022-07-25T05:48:01.756Z,31.37
2022-07-25T05:49:02.030Z,31.49
2022-07-25T05:50:02.107Z,31.70
2022-07-25T05:51:02.276Z,31.89
2022-07-25T05:52:02.476Z,32.14
2022-07-25T05:53:02.631Z,32.21
2022-07-25T05:54:03.010Z,32.40
2022-07-25T05:55:03.000Z,32.56
2022-07-25T05:56:03.189Z,32.74
2022-07-25T05:57:03.371Z,32.96
2022-07-25T05:58:03.541Z,33.12
2022-07-25T05:59:03.741Z,33.22
2022-07-25T06:00:03.910Z,33.14
2022-07-25T06:01:04.100Z,33.14
2022-07-25T06:02:04.454Z,33.09
2022-07-25T06:03:04.734Z,33.20
2022-07-25T06:04:04.876Z,33.30
2022-07-25T06:05:04.823Z,33.45
2022-07-25T06:06:04.992Z,33.67
2022-07-25T06:07:05.212Z,33.87
2022-07-25T06:08:05.352Z,33.74
2022-07-25T06:09:08.058Z,33.74
2022-07-25T06:10:05.702Z,33.86
2022-07-25T06:11:05.892Z,34.01
2022-07-25T06:12:06.074Z,34.17
2022-07-25T06:13:06.264Z,34.36
2022-07-25T06:14:06.804Z,34.52
2022-07-25T06:15:06.605Z,34.80
2022-07-25T06:16:06.790Z,34.81
2022-07-25T06:17:06.964Z,34.85
2022-07-25T06:18:07.144Z,34.99
2022-07-25T06:19:07.335Z,35.24
2022-07-25T06:20:07.517Z,35.56
2022-07-25T06:21:07.694Z,35.83
2022-07-25T06:22:07.866Z,36.14
2022-07-25T06:23:08.055Z,36.40
2022-07-25T06:24:08.594Z,36.54
2022-07-25T06:25:08.426Z,36.70
2022-07-25T06:26:08.604Z,36.93
2022-07-25T06:27:08.805Z,37.23
2022-07-25T06:28:10.672Z,37.47
2022-07-25T06:29:09.148Z,37.67
2022-07-25T06:30:19.193Z,37.83
2022-07-25T06:31:10.573Z,37.96
2022-07-25T06:32:09.677Z,38.02
2022-07-25T06:33:09.849Z,38.20
2022-07-25T06:34:10.514Z,38.34
2022-07-25T06:35:10.200Z,38.54
2022-07-25T06:36:10.408Z,38.69
2022-07-25T06:37:10.548Z,38.89
2022-07-25T06:38:10.728Z,39.00
2022-07-25T06:39:10.927Z,39.04
2022-07-25T06:40:11.060Z,39.12
2022-07-25T06:41:11.249Z,39.17
2022-07-25T06:42:11.420Z,39.06
2022-07-25T06:43:11.601Z,38.92
2022-07-25T06:44:11.801Z,38.86
2022-07-25T06:45:11.984Z,38.82
2022-07-25T06:46:12.239Z,38.80
2022-07-25T06:47:12.329Z,38.91
2022-07-25T06:48:12.501Z,39.14
2022-07-25T06:49:12.775Z,39.26
2022-07-25T06:50:12.853Z,39.25
2022-07-25T06:51:13.043Z,39.33
2022-07-25T06:52:13.212Z,39.48
2022-07-25T06:53:13.405Z,39.65
2022-07-25T06:54:13.585Z,39.77
2022-07-25T06:55:13.764Z,40.00
2022-07-25T06:56:17.569Z,40.21
2022-07-25T06:57:14.114Z,40.41
2022-07-25T06:58:14.300Z,40.49
2022-07-25T06:59:14.486Z,40.63
2022-07-25T07:00:14.619Z,40.75
2022-07-25T07:01:14.843Z,40.68
2022-07-25T07:02:14.985Z,40.40
2022-07-25T07:03:15.243Z,40.35
2022-07-25T07:04:15.355Z,40.41
2022-07-25T07:05:15.556Z,40.35
2022-07-25T07:06:15.688Z,40.26
2022-07-25T07:07:15.876Z,40.15
2022-07-25T07:08:16.049Z,40.21
2022-07-25T07:09:16.257Z,40.35
2022-07-25T07:10:16.436Z,40.46
2022-07-25T07:11:16.589Z,40.62
2022-07-25T07:12:16.762Z,40.90
2022-07-25T07:13:20.757Z,41.06
2022-07-25T07:14:18.137Z,41.15
2022-07-25T07:15:17.288Z,41.24
2022-07-25T07:16:17.502Z,41.04
2022-07-25T07:17:17.671Z,40.91
2022-07-25T07:18:17.869Z,40.96
2022-07-25T07:19:18.029Z,41.14
2022-07-25T07:20:18.201Z,41.31
2022-07-25T07:21:21.033Z,41.40
2022-07-25T07:22:18.542Z,41.44
2022-07-25T07:23:18.720Z,41.52
2022-07-25T07:24:24.469Z,41.63
2022-07-25T07:25:20.090Z,41.80
2022-07-25T07:26:19.272Z,41.92
2022-07-25T07:27:19.460Z,42.10
2022-07-25T07:28:19.631Z,42.13
2022-07-25T07:29:19.824Z,42.14
2022-07-25T07:30:24.853Z,42.29
2022-07-25T07:31:21.236Z,42.48
2022-07-25T07:32:20.434Z,42.65
2022-07-25T07:33:20.553Z,42.84
2022-07-25T07:34:20.693Z,42.99
2022-07-25T07:35:20.873Z,43.16
2022-07-25T07:36:21.056Z,43.16
2022-07-25T07:37:21.247Z,43.15
2022-07-25T07:38:21.426Z,43.07
2022-07-25T07:39:21.606Z,42.99
2022-07-25T07:40:21.812Z,43.13
2022-07-25T07:41:21.975Z,43.39
2022-07-25T07:42:22.115Z,43.62
2022-07-25T07:43:27.523Z,43.83
2022-07-25T07:44:23.466Z,43.84
2022-07-25T07:45:22.656Z,43.67
2022-07-25T07:46:22.872Z,43.54
2022-07-25T07:47:23.016Z,43.39
2022-07-25T07:48:23.217Z,43.50
2022-07-25T07:49:23.388Z,43.54
2022-07-25T07:50:23.527Z,43.62
2022-07-25T07:51:23.718Z,43.91
2022-07-25T07:52:23.896Z,44.15
2022-07-25T07:53:24.106Z,44.48
2022-07-25T07:54:24.249Z,44.67
2022-07-25T07:55:24.428Z,44.75
2022-07-25T07:56:24.599Z,45.00
2022-07-25T07:57:24.790Z,45.27
2022-07-25T07:58:24.980Z,45.56
2022-07-25T07:59:25.129Z,45.72
2022-07-25T08:00:25.335Z,45.70
2022-07-25T08:01:25.542Z,45.63
2022-07-25T08:02:25.750Z,45.75
2022-07-25T08:03:25.951Z,45.99
2022-07-25T08:04:26.020Z,46.26
2022-07-25T08:05:26.191Z,46.58
2022-07-25T08:06:26.373Z,46.76
2022-07-25T08:07:26.562Z,47.01
2022-07-25T08:08:31.075Z,47.18
2022-07-25T08:09:26.933Z,47.30
2022-07-25T08:10:27.105Z,47.29
2022-07-25T08:11:27.332Z,47.26
2022-07-25T08:12:27.474Z,47.29
2022-07-25T08:13:27.673Z,47.42
2022-07-25T08:14:27.853Z,47.53
2022-07-25T08:15:28.034Z,47.64
2022-07-25T08:16:28.310Z,47.74
2022-07-25T08:17:28.886Z,47.68
2022-07-25T08:18:28.577Z,47.39
2022-07-25T08:19:28.755Z,47.30
2022-07-25T08:20:37.830Z,47.36
2022-07-25T08:21:30.115Z,47.54
2022-07-25T08:22:29.297Z,47.68
2022-07-25T08:23:29.506Z,47.86
2022-07-25T08:24:29.653Z,48.05
2022-07-25T08:25:29.826Z,48.15
2022-07-25T08:26:30.021Z,48.21
2022-07-25T08:27:30.200Z,48.29
2022-07-25T08:28:30.391Z,48.29
2022-07-25T08:29:30.567Z,48.36
2022-07-25T08:30:30.760Z,48.41
2022-07-25T08:31:30.957Z,48.40
2022-07-25T08:32:31.105Z,48.49
2022-07-25T08:33:31.308Z,48.37
2022-07-25T08:34:31.449Z,48.18
2022-07-25T08:35:31.628Z,48.17
2022-07-25T08:36:34.795Z,48.26
2022-07-25T08:37:31.966Z,48.37
2022-07-25T08:38:32.150Z,48.45
2022-07-25T08:39:32.386Z,48.60
2022-07-25T08:40:32.508Z,48.60
2022-07-25T08:41:32.701Z,48.47
2022-07-25T08:42:32.872Z,48.43
2022-07-25T08:43:33.121Z,48.55
2022-07-25T08:44:33.241Z,48.77
2022-07-25T08:45:33.434Z,48.94
2022-07-25T08:46:33.671Z,48.99
2022-07-25T08:47:33.804Z,49.06
2022-07-25T08:48:34.051Z,49.13
2022-07-25T08:49:34.152Z,49.17
2022-07-25T08:50:34.360Z,49.30
2022-07-25T08:51:34.512Z,49.45
2022-07-25T08:52:34.692Z,49.64
2022-07-25T08:53:35.623Z,49.85
2022-07-25T08:54:35.056Z,50.08
2022-07-25T08:55:35.213Z,50.31
2022-07-25T08:56:35.393Z,50.16
2022-07-25T08:57:35.586Z,50.08
2022-07-25T08:58:35.774Z,50.16
2022-07-25T08:59:35.915Z,50.17
2022-07-25T09:00:36.095Z,50.26
2022-07-25T09:01:36.400Z,50.26
2022-07-25T09:02:36.513Z,50.20
2022-07-25T09:03:36.663Z,50.28
2022-07-25T09:04:36.824Z,50.44
2022-07-25T09:05:37.219Z,50.60
2022-07-25T09:06:37.197Z,50.62
2022-07-25T09:07:37.393Z,50.48
2022-07-25T09:08:37.575Z,50.44
2022-07-25T09:09:37.756Z,50.46
2022-07-25T09:10:37.937Z,50.60
2022-07-25T09:11:38.120Z,50.62
2022-07-25T09:12:38.297Z,50.71
2022-07-25T09:13:38.497Z,50.93
2022-07-25T09:14:38.637Z,51.05
2022-07-25T09:15:38.914Z,51.13
2022-07-25T09:16:40.132Z,51.29
2022-07-25T09:17:39.180Z,51.53
2022-07-25T09:18:39.348Z,51.80
2022-07-25T09:19:39.537Z,52.02
2022-07-25T09:20:39.711Z,52.28
2022-07-25T09:21:39.945Z,52.55
2022-07-25T09:22:40.070Z,52.75
2022-07-25T09:23:40.257Z,52.93
2022-07-25T09:24:40.411Z,53.06
2022-07-25T09:25:40.589Z,53.06
2022-07-25T09:26:40.769Z,53.11
2022-07-25T09:27:40.960Z,53.03
2022-07-25T09:28:41.118Z,52.96
2022-07-25T09:29:41.304Z,53.00
2022-07-25T09:30:41.511Z,53.23
2022-07-25T09:31:41.756Z,53.43
2022-07-25T09:32:41.838Z,53.69
2022-07-25T09:33:42.031Z,53.90
2022-07-25T09:34:42.211Z,54.12
2022-07-25T09:35:42.398Z,54.34
2022-07-25T09:36:42.590Z,54.47
2022-07-25T09:37:42.782Z,54.70
2022-07-25T09:38:42.984Z,54.81
2022-07-25T09:39:46.440Z,54.91
2022-07-25T09:40:43.319Z,54.93
2022-07-25T09:41:43.513Z,54.81
2022-07-25T09:42:43.680Z,54.75
2022-07-25T09:43:43.904Z,54.42
2022-07-25T09:44:44.042Z,54.09
2022-07-25T09:45:44.221Z,53.93
2022-07-25T09:46:44.449Z,53.82
2022-07-25T09:47:44.589Z,53.52
2022-07-25T09:48:44.903Z,53.33
2022-07-25T09:49:44.952Z,53.21
2022-07-25T09:50:45.140Z,53.16
2022-07-25T09:51:45.323Z,53.19
2022-07-25T09:52:45.492Z,53.24
2022-07-25T09:53:45.753Z,53.38
2022-07-25T09:54:45.863Z,53.38
2022-07-25T09:55:46.056Z,53.26
2022-07-25T09:56:46.232Z,53.21
2022-07-25T09:57:46.423Z,53.32
2022-07-25T09:58:46.612Z,53.48
2022-07-25T09:59:46.798Z,53.71
2022-07-25T10:00:46.973Z,53.85
2022-07-25T10:01:47.181Z,54.05
2022-07-25T10:02:47.406Z,54.23
2022-07-25T10:03:47.505Z,54.31
2022-07-25T10:04:47.644Z,54.34
2022-07-25T10:05:47.834Z,54.45
2022-07-25T10:06:48.014Z,54.50
2022-07-25T10:07:48.203Z,54.52
2022-07-25T10:08:48.397Z,54.58
2022-07-25T10:09:48.575Z,54.62
2022-07-25T10:10:48.766Z,54.60
2022-07-25T10:11:48.935Z,54.49
2022-07-25T10:12:49.114Z,54.31
2022-07-25T10:13:49.304Z,54.09
2022-07-25T10:14:49.484Z,54.07
2022-07-25T10:15:49.663Z,54.09
2022-07-25T10:16:49.971Z,54.14
2022-07-25T10:17:50.046Z,53.89
2022-07-25T10:18:50.236Z,53.52
2022-07-25T10:20:04.899Z,52.93
2022-07-25T10:20:50.576Z,52.21
2022-07-25T10:21:50.753Z,51.39
2022-07-25T10:22:58.596Z,50.56
2022-07-25T10:23:52.127Z,49.93
2022-07-25T10:24:51.289Z,49.51
2022-07-25T10:25:51.479Z,49.13
2022-07-25T10:26:51.638Z,48.66
2022-07-25T10:27:51.827Z,48.10
2022-07-25T10:28:52.018Z,47.34
2022-07-25T10:29:52.158Z,46.55
2022-07-25T10:30:52.413Z,45.93
2022-07-25T10:31:52.531Z,45.25
2022-07-25T10:32:52.709Z,44.76
2022-07-25T10:33:52.913Z,44.18
2022-07-25T10:34:53.059Z,43.73
2022-07-25T10:35:53.245Z,43.26
2022-07-25T10:36:53.430Z,43.00
2022-07-25T10:37:53.610Z,42.76
2022-07-25T10:38:53.811Z,42.55
2022-07-25T10:39:53.963Z,42.35
2022-07-25T10:40:54.143Z,42.12
2022-07-25T10:41:54.320Z,41.94
2022-07-25T10:42:54.515Z,41.63
2022-07-25T10:43:54.711Z,41.28
2022-07-25T10:44:54.891Z,41.06
2022-07-25T10:45:55.130Z,40.91
2022-07-25T10:46:55.243Z,40.87
2022-07-25T10:47:55.426Z,40.81
2022-07-25T10:48:55.700Z,40.73
2022-07-25T10:50:15.203Z,40.61
2022-07-25T10:50:57.302Z,40.46
2022-07-25T10:51:56.138Z,40.34
2022-07-25T10:52:56.322Z,40.30
2022-07-25T10:53:56.503Z,40.27
2022-07-25T10:54:56.655Z,40.20
2022-07-25T10:56:05.851Z,40.06
2022-07-25T10:56:58.032Z,40.02
2022-07-25T10:58:16.594Z,40.11
2022-07-25T10:58:58.378Z,40.18
2022-07-25T10:59:57.545Z,40.24
2022-07-25T11:00:57.772Z,40.33
2022-07-25T11:01:57.906Z,40.35
2022-07-25T11:02:58.196Z,40.40
2022-07-25T11:03:58.276Z,40.35
2022-07-25T11:04:58.431Z,40.33
2022-07-25T11:05:58.607Z,40.28
2022-07-25T11:06:58.796Z,40.27
2022-07-25T11:08:20.566Z,40.20
2022-07-25T11:09:00.178Z,40.16
2022-07-25T11:09:59.329Z,40.08
2022-07-25T11:10:59.519Z,39.93
2022-07-25T11:11:59.679Z,39.92
2022-07-25T11:12:59.861Z,39.96
2022-07-25T11:14:00.072Z,39.97
2022-07-25T11:15:00.228Z,39.90
2022-07-25T11:16:00.410Z,39.77
2022-07-25T11:17:00.666Z,39.67
2022-07-25T11:18:00.779Z,39.67
2022-07-25T11:19:00.985Z,39.71
2022-07-25T11:20:01.154Z,39.78
2022-07-25T11:21:06.062Z,39.77
2022-07-25T11:22:02.521Z,39.78
2022-07-25T11:23:01.717Z,39.86
2022-07-25T11:24:01.904Z,39.94
2022-07-25T11:25:02.087Z,40.04
2022-07-25T11:26:02.262Z,40.12
2022-07-25T11:27:02.444Z,40.15
2022-07-25T11:28:02.745Z,40.20
2022-07-25T11:29:02.928Z,40.24
2022-07-25T11:30:02.988Z,40.27
2022-07-25T11:31:03.175Z,40.30
2022-07-25T11:32:03.428Z,40.21
2022-07-25T11:33:03.586Z,40.16
2022-07-25T11:34:03.736Z,40.11
2022-07-25T11:35:03.885Z,40.05
2022-07-25T11:36:04.065Z,40.06
2022-07-25T11:37:04.236Z,40.02
2022-07-25T11:38:04.417Z,40.04
2022-07-25T11:39:04.895Z,40.08
2022-07-25T11:40:04.755Z,40.08
2022-07-25T11:41:04.946Z,40.11
2022-07-25T11:42:05.129Z,39.97
2022-07-25T11:43:05.346Z,39.92
2022-07-25T11:44:05.489Z,39.80
2022-07-25T11:45:05.664Z,39.70
2022-07-25T11:46:05.891Z,39.62
2022-07-25T11:47:06.020Z,39.67
2022-07-25T11:48:06.186Z,39.77
2022-07-25T11:49:06.926Z,39.85
2022-07-25T11:50:06.653Z,39.87
2022-07-25T11:51:06.719Z,39.83
2022-07-25T11:52:06.907Z,39.74
2022-07-25T11:53:07.089Z,39.74
2022-07-25T11:54:07.299Z,39.78
2022-07-25T11:55:07.441Z,39.83
2022-07-25T11:56:32.191Z,39.89
2022-07-25T11:57:08.793Z,39.93
2022-07-25T11:58:07.978Z,40.00
2022-07-25T11:59:08.686Z,40.04
2022-07-25T12:00:08.328Z,39.92
2022-07-25T12:01:08.512Z,39.90
2022-07-25T12:02:08.821Z,39.92
2022-07-25T12:03:09.071Z,39.94
2022-07-25T12:04:09.090Z,39.96
2022-07-25T12:05:09.257Z,40.02
2022-07-25T12:06:09.379Z,40.00
2022-07-25T12:07:09.561Z,39.97
2022-07-25T12:08:09.732Z,39.93
2022-07-25T12:09:12.896Z,39.83
2022-07-25T12:10:11.115Z,39.80
2022-07-25T12:11:10.303Z,39.75
2022-07-25T12:12:10.491Z,39.68
2022-07-25T12:13:10.675Z,39.60
2022-07-25T12:14:10.874Z,39.58
2022-07-25T12:15:11.034Z,39.62
2022-07-25T12:16:11.214Z,39.65
2022-07-25T12:17:11.424Z,39.70
2022-07-25T12:18:11.571Z,39.67
2022-07-25T12:19:11.777Z,39.67
2022-07-25T12:20:11.978Z,39.65
2022-07-25T12:21:12.076Z,39.68
2022-07-25T12:22:12.258Z,39.67
2022-07-25T12:23:12.456Z,39.72
2022-07-25T12:24:12.636Z,39.71
2022-07-25T12:25:12.817Z,39.70
2022-07-25T12:26:13.007Z,39.70
2022-07-25T12:27:13.198Z,39.67
2022-07-25T12:28:13.378Z,39.60
2022-07-25T12:29:13.578Z,39.53
2022-07-25T12:30:13.740Z,39.40
2022-07-25T12:31:13.996Z,39.38
2022-07-25T12:32:14.048Z,39.38
2022-07-25T12:33:14.242Z,39.36
2022-07-25T12:34:14.439Z,39.37
2022-07-25T12:35:14.583Z,39.36
2022-07-25T12:36:14.777Z,39.40
2022-07-25T12:37:14.953Z,39.48
2022-07-25T12:38:15.115Z,39.49
2022-07-25T12:39:15.338Z,39.55
2022-07-25T12:40:15.460Z,39.60
2022-07-25T12:41:18.002Z,39.71
2022-07-25T12:42:15.835Z,39.78
2022-07-25T12:43:16.018Z,39.90
2022-07-25T12:44:16.212Z,39.99
2022-07-25T12:45:16.373Z,40.04
2022-07-25T12:46:16.615Z,40.06
2022-07-25T12:47:16.699Z,40.09
2022-07-25T12:48:16.872Z,40.04
2022-07-25T12:49:17.219Z,40.02
2022-07-25T12:50:17.225Z,40.04
2022-07-25T12:51:17.405Z,40.11
2022-07-25T12:52:17.604Z,40.16
2022-07-25T12:53:17.777Z,40.21
2022-07-25T12:54:22.261Z,40.27